Time;durP1;ratioP1;P1;durP2;ratioP2;P2;SDS_P1;SDS_P2;PMS_P1;PMS_P2;Temp;Humidity;BMP_temperature;BMP_pressure;BME280_temperature;BME280_humidity;BME280_pressure;Samples;Min_cycle;Max_cycle;Signal;HPM_P1;HPM_P2
2021/08/24 00:00:03;;;;;;;8.00;5.78;;;18.00;99.90;;;;;;5066886;28;20020;-76
2021/08/24 00:02:29;;;;;;;6.07;5.47;;;17.90;99.90;;;;;;5066594;28;20033;-76
2021/08/24 00:04:54;;;;;;;7.75;5.75;;;17.90;99.90;;;;;;5063188;28;20025;-76
2021/08/24 00:07:20;;;;;;;9.10;6.20;;;17.90;99.90;;;;;;5072634;28;20040;-75
2021/08/24 00:09:45;;;;;;;9.45;5.63;;;17.90;99.90;;;;;;5066868;28;20024;-78
2021/08/24 00:12:11;;;;;;;7.55;5.40;;;17.90;99.90;;;;;;5067284;28;20024;-77
2021/08/24 00:14:37;;;;;;;8.68;5.40;;;17.80;99.90;;;;;;5064912;28;20051;-75
2021/08/24 00:17:03;;;;;;;6.82;5.35;;;17.80;99.90;;;;;;5070698;28;20025;-74
2021/08/24 00:19:28;;;;;;;6.30;5.28;;;17.80;99.90;;;;;;5072731;28;20100;-76
2021/08/24 00:21:54;;;;;;;9.68;5.32;;;17.80;99.90;;;;;;5071928;28;20074;-77
2021/08/24 00:24:20;;;;;;;6.57;5.47;;;17.80;99.90;;;;;;5068584;28;20024;-74
2021/08/24 00:26:46;;;;;;;9.02;5.30;;;17.70;99.90;;;;;;5074066;28;20469;-73
2021/08/24 00:29:13;;;;;;;8.23;5.55;;;17.70;99.90;;;;;;5063424;28;20031;-73
2021/08/24 00:31:39;;;;;;;6.28;5.68;;;17.80;99.90;;;;;;5065096;28;20377;-73
2021/08/24 00:34:05;;;;;;;8.57;5.65;;;17.70;99.90;;;;;;5069297;28;20107;-78
2021/08/24 00:36:31;;;;;;;7.05;5.50;;;17.70;99.90;;;;;;5068781;28;20029;-77
2021/08/24 00:38:57;;;;;;;9.38;5.60;;;17.60;99.90;;;;;;5069667;28;20547;-77
2021/08/24 00:41:23;;;;;;;7.30;5.30;;;17.70;99.90;;;;;;5066864;28;20033;-75
2021/08/24 00:43:51;;;;;;;8.18;5.72;;;17.60;99.90;;;;;;5065613;28;20081;-76
2021/08/24 00:46:41;;;;;;;8.10;5.90;;;17.60;99.90;;;;;;5064856;28;20551;-76
2021/08/24 00:49:14;;;;;;;8.02;5.13;;;17.60;99.90;;;;;;5073085;28;20461;-77
2021/08/24 00:51:44;;;;;;;8.43;5.32;;;17.60;99.90;;;;;;5067203;28;20043;-77
2021/08/24 00:54:12;;;;;;;7.75;5.22;;;17.60;99.90;;;;;;5067184;28;20044;-75
2021/08/24 00:56:40;;;;;;;9.95;5.85;;;17.40;99.90;;;;;;5067157;28;20027;-75
2021/08/24 00:59:07;;;;;;;8.48;5.50;;;17.50;99.90;;;;;;5073451;28;20081;-74
2021/08/24 01:01:34;;;;;;;7.97;5.30;;;17.40;99.90;;;;;;5064454;28;20028;-74
2021/08/24 01:04:00;;;;;;;6.97;5.28;;;17.40;99.90;;;;;;5068762;28;20495;-75
2021/08/24 01:06:41;;;;;;;9.68;5.68;;;17.50;99.90;;;;;;5054110;28;20388;-73
2021/08/24 01:09:46;;;;;;;7.82;5.70;;;17.40;99.90;;;;;;5069937;28;20032;-75
2021/08/24 01:12:38;;;;;;;8.13;5.15;;;17.40;99.90;;;;;;5011429;28;20029;-73
2021/08/24 01:15:28;;;;;;;6.22;5.40;;;17.40;99.90;;;;;;5067060;28;20094;-73
2021/08/24 01:18:07;;;;;;;9.48;5.20;;;17.50;99.90;;;;;;5066875;28;20452;-73
2021/08/24 01:21:03;;;;;;;7.03;5.55;;;17.50;99.90;;;;;;5066415;28;20224;-73
2021/08/24 01:23:47;;;;;;;8.68;5.10;;;17.50;99.90;;;;;;5069165;28;20040;-73
2021/08/24 01:26:18;;;;;;;8.05;5.63;;;17.50;99.90;;;;;;5071409;28;20024;-71
2021/08/24 01:29:27;;;;;;;7.80;5.78;;;17.50;99.90;;;;;;5067297;28;20028;-73
2021/08/24 01:32:05;;;;;;;7.63;5.43;;;17.50;99.90;;;;;;5065015;28;20107;-73
2021/08/24 01:35:08;;;;;;;8.68;6.10;;;17.50;99.90;;;;;;5068348;28;20072;-73
2021/08/24 01:37:55;;;;;;;14.75;6.60;;;17.40;99.90;;;;;;5048543;28;20488;-76
2021/08/24 01:40:39;;;;;;;11.00;6.30;;;17.40;99.90;;;;;;5069658;28;20036;-76
2021/08/24 01:43:07;;;;;;;10.00;6.05;;;17.40;99.90;;;;;;5067293;28;20024;-73
2021/08/24 01:45:42;;;;;;;9.20;6.30;;;17.40;99.90;;;;;;5063797;28;20044;-72
2021/08/24 01:48:20;;;;;;;7.22;6.00;;;17.40;99.90;;;;;;5061931;28;20024;-73
2021/08/24 01:50:51;;;;;;;7.00;6.30;;;17.30;99.90;;;;;;5063595;28;20072;-73
2021/08/24 01:53:48;;;;;;;7.35;5.70;;;17.30;99.90;;;;;;5068441;28;20039;-75
2021/08/24 01:56:28;;;;;;;12.20;6.82;;;17.20;99.90;;;;;;5037745;28;20040;-75
2021/08/24 01:59:01;;;;;;;8.70;6.10;;;17.20;99.90;;;;;;5066455;28;20029;-73
2021/08/24 02:01:35;;;;;;;9.68;6.82;;;17.20;99.90;;;;;;5065147;28;20477;-72
2021/08/24 02:04:04;;;;;;;9.40;5.88;;;17.20;99.90;;;;;;5066941;28;20025;-72
2021/08/24 02:06:42;;;;;;;6.28;5.70;;;17.20;99.90;;;;;;5051419;28;20060;-72
2021/08/24 02:09:23;;;;;;;14.00;6.63;;;17.20;99.90;;;;;;5069795;28;20027;-73
2021/08/24 02:11:52;;;;;;;6.75;6.05;;;17.20;99.90;;;;;;5066889;28;20101;-72
2021/08/24 02:14:19;;;;;;;11.70;6.68;;;17.20;99.90;;;;;;5069200;28;20063;-72
2021/08/24 02:16:47;;;;;;;11.43;6.70;;;17.20;99.90;;;;;;5071565;28;20013;-74
2021/08/24 02:19:20;;;;;;;13.15;6.13;;;17.20;99.90;;;;;;5065925;28;20035;-72
2021/08/24 02:22:02;;;;;;;15.70;7.18;;;17.20;99.90;;;;;;5065154;28;20032;-73
2021/08/24 02:24:34;;;;;;;8.93;6.30;;;17.10;99.90;;;;;;5067207;28;20029;-73
2021/08/24 02:27:05;;;;;;;10.33;6.70;;;17.10;99.90;;;;;;5059205;28;20287;-73
2021/08/24 02:29:31;;;;;;;9.65;6.03;;;17.10;99.90;;;;;;5065008;28;20044;-72
2021/08/24 02:32:01;;;;;;;10.65;7.03;;;17.10;99.90;;;;;;5057475;28;20025;-72
2021/08/24 02:34:50;;;;;;;13.65;7.55;;;17.00;99.90;;;;;;5057047;28;20043;-73
2021/08/24 02:37:45;;;;;;;8.23;6.95;;;17.00;99.90;;;;;;5060823;28;20025;-73
2021/08/24 02:40:23;;;;;;;7.47;6.40;;;17.00;99.90;;;;;;5068483;28;20028;-73
2021/08/24 02:43:17;;;;;;;10.32;6.88;;;17.00;99.90;;;;;;5062112;28;20028;-73
2021/08/24 02:45:59;;;;;;;12.10;7.25;;;16.90;99.90;;;;;;5069232;28;20117;-73
2021/08/24 02:48:26;;;;;;;12.07;6.75;;;16.90;99.90;;;;;;5044363;28;20461;-76
2021/08/24 02:50:54;;;;;;;12.52;7.45;;;16.90;99.90;;;;;;5050480;28;20477;-75
2021/08/24 02:53:23;;;;;;;10.20;6.75;;;16.90;99.90;;;;;;5067379;28;20060;-73
2021/08/24 02:55:50;;;;;;;11.25;7.18;;;16.80;99.90;;;;;;5053127;28;20374;-72
2021/08/24 02:58:16;;;;;;;10.15;6.30;;;16.80;99.90;;;;;;5069456;28;20483;-73
2021/08/24 03:00:42;;;;;;;9.73;6.30;;;16.80;99.90;;;;;;5064144;28;20104;-73
2021/08/24 03:03:07;;;;;;;10.65;7.43;;;16.80;99.90;;;;;;5064416;28;20021;-74
2021/08/24 03:05:33;;;;;;;9.45;6.30;;;16.80;99.90;;;;;;5072103;28;20488;-72
2021/08/24 03:08:01;;;;;;;12.00;6.78;;;16.70;99.90;;;;;;5067162;28;20483;-73
2021/08/24 03:10:30;;;;;;;11.35;7.28;;;16.70;99.90;;;;;;5059309;28;20029;-73
2021/08/24 03:13:09;;;;;;;8.95;6.95;;;16.70;99.90;;;;;;5068912;28;20013;-71
2021/08/24 03:15:41;;;;;;;12.85;7.80;;;16.70;99.90;;;;;;5061875;28;20040;-72
2021/08/24 03:18:33;;;;;;;13.35;8.88;;;16.70;99.90;;;;;;5064911;28;20063;-73
2021/08/24 03:21:05;;;;;;;11.02;6.68;;;16.50;99.90;;;;;;5063045;28;20024;-72
2021/08/24 03:23:32;;;;;;;13.85;6.50;;;16.60;99.90;;;;;;5066609;28;20123;-72
2021/08/24 03:25:59;;;;;;;12.20;7.53;;;16.50;99.90;;;;;;5061788;28;20025;-74
2021/08/24 03:28:25;;;;;;;10.52;6.88;;;16.50;99.90;;;;;;5066425;28;20030;-75
2021/08/24 03:30:52;;;;;;;9.48;7.75;;;16.60;99.90;;;;;;5067881;28;20059;-74
2021/08/24 03:33:19;;;;;;;8.07;7.00;;;16.50;99.90;;;;;;5065875;28;20115;-73
2021/08/24 03:35:44;;;;;;;13.48;7.60;;;16.50;99.90;;;;;;5065877;28;20423;-72
2021/08/24 03:38:11;;;;;;;10.98;7.93;;;16.40;99.90;;;;;;5066385;28;20021;-71
2021/08/24 03:40:36;;;;;;;11.55;8.77;;;16.40;99.90;;;;;;5070134;28;20036;-72
2021/08/24 03:43:03;;;;;;;9.40;7.57;;;16.40;99.90;;;;;;5072214;28;20021;-71
2021/08/24 03:45:29;;;;;;;10.90;7.45;;;16.40;99.90;;;;;;5071879;28;20109;-72
2021/08/24 03:47:55;;;;;;;12.80;8.60;;;16.30;99.90;;;;;;5053529;28;20048;-74
2021/08/24 03:50:21;;;;;;;13.40;8.23;;;16.30;99.90;;;;;;5068341;28;20021;-72
2021/08/24 03:52:47;;;;;;;9.32;7.65;;;16.30;99.90;;;;;;5073357;28;20125;-72
2021/08/24 03:55:12;;;;;;;8.70;7.80;;;16.30;99.90;;;;;;5066799;28;20521;-73
2021/08/24 03:57:38;;;;;;;10.55;7.63;;;16.30;99.90;;;;;;5068751;28;20388;-72
2021/08/24 04:00:05;;;;;;;10.68;6.95;;;16.20;99.90;;;;;;5060577;28;20159;-73
2021/08/24 04:02:31;;;;;;;10.38;7.20;;;16.30;99.90;;;;;;5065398;28;20025;-72
2021/08/24 04:05:01;;;;;;;9.75;8.48;;;16.30;99.90;;;;;;5069392;28;20020;-73
2021/08/24 04:07:26;;;;;;;8.73;6.93;;;16.30;99.90;;;;;;5065011;28;20028;-72
2021/08/24 04:09:52;;;;;;;12.85;7.85;;;16.30;99.90;;;;;;5062105;28;20021;-73
2021/08/24 04:12:18;;;;;;;10.27;7.28;;;16.30;99.90;;;;;;5051916;28;20028;-73
2021/08/24 04:14:44;;;;;;;14.32;8.32;;;16.20;99.90;;;;;;5068121;28;20128;-74
2021/08/24 04:17:09;;;;;;;11.48;6.65;;;16.20;99.90;;;;;;5066703;28;20018;-71
2021/08/24 04:19:35;;;;;;;10.27;7.43;;;16.20;99.90;;;;;;5068871;28;20035;-72
2021/08/24 04:22:04;;;;;;;9.50;7.03;;;16.10;99.90;;;;;;5062927;28;20024;-72
2021/08/24 04:24:30;;;;;;;9.38;7.03;;;16.10;99.90;;;;;;5067420;28;20052;-72
2021/08/24 04:26:55;;;;;;;12.38;7.57;;;16.20;99.90;;;;;;5063575;28;20055;-71
2021/08/24 04:29:21;;;;;;;12.05;7.50;;;16.20;99.90;;;;;;5069087;28;20028;-74
2021/08/24 04:31:47;;;;;;;10.98;7.93;;;16.10;99.90;;;;;;5066945;28;20029;-76
2021/08/24 04:34:13;;;;;;;9.38;7.60;;;16.20;99.90;;;;;;5066573;28;20032;-74
2021/08/24 04:36:38;;;;;;;10.00;7.20;;;16.20;99.90;;;;;;5058884;28;20032;-73
2021/08/24 04:39:04;;;;;;;11.05;8.18;;;16.10;99.90;;;;;;5071393;28;20074;-73
2021/08/24 04:41:31;;;;;;;10.40;6.93;;;16.10;99.90;;;;;;5071986;28;20067;-74
2021/08/24 04:43:57;;;;;;;13.18;7.47;;;16.10;99.90;;;;;;5068018;28;20048;-75
2021/08/24 04:46:23;;;;;;;8.60;7.07;;;16.10;99.90;;;;;;5068231;28;20123;-73
2021/08/24 04:48:48;;;;;;;11.57;6.90;;;16.10;99.90;;;;;;5067840;28;20040;-75
2021/08/24 04:51:14;;;;;;;11.75;6.90;;;16.00;99.90;;;;;;5070223;28;20078;-73
2021/08/24 04:53:40;;;;;;;7.30;6.47;;;16.00;99.90;;;;;;5031167;28;1123589;-74
2021/08/24 04:56:05;;;;;;;11.25;7.97;;;16.00;99.90;;;;;;5062295;28;20021;-75
2021/08/24 04:58:31;;;;;;;10.20;7.38;;;16.00;99.90;;;;;;5073394;28;20024;-73
2021/08/24 05:00:57;;;;;;;7.05;6.20;;;16.00;99.90;;;;;;5067563;28;20031;-72
2021/08/24 05:03:22;;;;;;;8.90;7.35;;;16.00;99.90;;;;;;5069057;28;20074;-74
2021/08/24 05:05:48;;;;;;;7.78;6.68;;;16.10;99.90;;;;;;5062150;28;20177;-72
2021/08/24 05:08:15;;;;;;;9.00;6.40;;;16.00;99.90;;;;;;5066495;28;20025;-73
2021/08/24 05:10:40;;;;;;;10.35;6.93;;;16.10;99.90;;;;;;5069731;28;20031;-72
2021/08/24 05:13:06;;;;;;;8.50;7.60;;;16.10;99.90;;;;;;5066791;28;20029;-71
2021/08/24 05:15:32;;;;;;;10.07;6.95;;;16.10;99.90;;;;;;5068715;28;20039;-72
2021/08/24 05:17:58;;;;;;;9.70;6.75;;;16.00;99.90;;;;;;5068214;28;20032;-74
2021/08/24 05:20:25;;;;;;;11.30;6.75;;;16.00;99.90;;;;;;5066214;28;20035;-73
2021/08/24 05:22:50;;;;;;;8.48;6.38;;;15.90;99.90;;;;;;5067374;28;20032;-72
2021/08/24 05:25:20;;;;;;;9.13;6.00;;;16.00;99.90;;;;;;5062780;28;20028;-72
2021/08/24 05:27:46;;;;;;;9.32;6.45;;;16.00;99.90;;;;;;5065439;28;20044;-72
2021/08/24 05:30:15;;;;;;;10.68;6.82;;;16.00;99.90;;;;;;5065214;28;20071;-72
2021/08/24 05:32:41;;;;;;;8.38;6.95;;;15.90;99.90;;;;;;5060728;28;20029;-73
2021/08/24 05:35:07;;;;;;;10.35;6.95;;;16.00;99.90;;;;;;5070739;28;20134;-72
2021/08/24 05:37:33;;;;;;;9.75;6.90;;;16.00;99.90;;;;;;5070843;28;20024;-76
2021/08/24 05:39:59;;;;;;;12.23;7.38;;;16.00;99.90;;;;;;5069525;28;20026;-74
2021/08/24 05:42:25;;;;;;;9.20;7.75;;;16.00;99.90;;;;;;5073104;28;20103;-76
2021/08/24 05:44:50;;;;;;;7.85;6.78;;;16.00;99.90;;;;;;5066292;28;20067;-77
2021/08/24 05:47:16;;;;;;;8.55;6.57;;;16.00;99.90;;;;;;5070430;28;20033;-74
2021/08/24 05:49:42;;;;;;;11.25;7.40;;;16.00;99.90;;;;;;5071746;28;20033;-72
2021/08/24 05:52:09;;;;;;;13.02;7.18;;;16.00;99.90;;;;;;5063080;28;20107;-76
2021/08/24 05:54:38;;;;;;;15.23;8.13;;;16.00;99.90;;;;;;5062660;28;20441;-75
2021/08/24 05:57:05;;;;;;;11.52;7.03;;;16.00;99.90;;;;;;5063082;28;20428;-77
2021/08/24 05:59:35;;;;;;;8.65;6.78;;;16.10;99.90;;;;;;5066201;28;20058;-77
2021/08/24 06:02:01;;;;;;;11.23;6.65;;;16.10;99.90;;;;;;5067228;28;20469;-76
2021/08/24 06:04:27;;;;;;;10.63;7.22;;;16.10;99.90;;;;;;5074131;28;20024;-77
2021/08/24 06:06:53;;;;;;;10.90;7.45;;;16.10;99.90;;;;;;5058584;28;20044;-76
2021/08/24 06:09:19;;;;;;;10.50;7.53;;;16.10;99.90;;;;;;5071421;28;20031;-73
2021/08/24 06:11:50;;;;;;;8.73;7.00;;;16.10;99.90;;;;;;5060965;28;20032;-76
2021/08/24 06:14:16;;;;;;;14.07;8.18;;;16.10;99.90;;;;;;5058908;28;20116;-73
2021/08/24 06:16:41;;;;;;;13.02;8.75;;;16.20;99.90;;;;;;5071001;28;20149;-76
2021/08/24 06:19:09;;;;;;;12.35;8.23;;;16.20;99.90;;;;;;5065101;28;20105;-76
2021/08/24 06:21:35;;;;;;;16.42;8.10;;;16.20;99.90;;;;;;5062829;28;20020;-72
2021/08/24 06:24:02;;;;;;;12.48;7.88;;;16.20;99.90;;;;;;5064939;28;20028;-72
2021/08/24 06:26:28;;;;;;;11.80;7.55;;;16.20;99.90;;;;;;5061804;28;20033;-71
2021/08/24 06:28:54;;;;;;;10.73;8.30;;;16.30;99.90;;;;;;5056277;28;20469;-73
2021/08/24 06:31:23;;;;;;;12.68;8.05;;;16.20;99.90;;;;;;5061400;28;20032;-72
2021/08/24 06:33:50;;;;;;;13.63;7.65;;;16.20;99.90;;;;;;5062074;28;20051;-78
2021/08/24 06:36:16;;;;;;;11.90;7.72;;;16.30;99.90;;;;;;5068104;28;20183;-76
2021/08/24 06:38:43;;;;;;;17.02;8.82;;;16.30;99.90;;;;;;5066680;28;20083;-76
2021/08/24 06:41:08;;;;;;;12.45;8.20;;;16.30;99.90;;;;;;5061689;28;20472;-78
2021/08/24 06:43:34;;;;;;;12.98;7.72;;;16.30;99.90;;;;;;5069488;28;20112;-76
2021/08/24 06:46:00;;;;;;;13.43;8.77;;;16.30;99.90;;;;;;5062195;28;20033;-77
2021/08/24 06:48:26;;;;;;;16.17;8.65;;;16.30;99.90;;;;;;5066505;28;20025;-77
2021/08/24 06:50:52;;;;;;;14.50;8.93;;;16.40;99.90;;;;;;5068164;28;20059;-76
2021/08/24 06:53:18;;;;;;;10.93;8.75;;;16.40;99.90;;;;;;5070583;28;20028;-77
2021/08/24 06:55:43;;;;;;;12.25;9.57;;;16.50;99.90;;;;;;5065081;28;20662;-76
2021/08/24 06:58:10;;;;;;;13.25;8.80;;;16.50;99.90;;;;;;5062904;28;20021;-74
2021/08/24 07:00:37;;;;;;;15.73;10.15;;;16.50;99.90;;;;;;5067968;28;20099;-72
2021/08/24 07:03:05;;;;;;;14.65;9.55;;;16.50;99.90;;;;;;5061488;28;20020;-72
2021/08/24 07:05:33;;;;;;;15.73;9.70;;;16.60;99.90;;;;;;5063573;28;20020;-71
2021/08/24 07:07:59;;;;;;;13.35;9.48;;;16.60;99.90;;;;;;5059875;28;20051;-71
2021/08/24 07:10:26;;;;;;;12.77;9.45;;;16.60;99.90;;;;;;5063351;28;20086;-71
2021/08/24 07:12:52;;;;;;;15.95;10.23;;;16.60;99.90;;;;;;5068560;28;20103;-73
2021/08/24 07:15:20;;;;;;;18.52;9.27;;;16.60;99.90;;;;;;5061766;28;20124;-74
2021/08/24 07:17:47;;;;;;;17.65;10.27;;;16.70;99.90;;;;;;5066181;28;20037;-73
2021/08/24 07:20:15;;;;;;;11.88;8.05;;;16.70;99.90;;;;;;5069538;28;20016;-74
2021/08/24 07:22:40;;;;;;;19.00;11.02;;;16.80;99.90;;;;;;5069042;28;20369;-76
2021/08/24 07:25:10;;;;;;;16.00;10.52;;;16.80;99.90;;;;;;5066573;28;20465;-72
2021/08/24 07:27:36;;;;;;;13.95;8.77;;;16.80;99.90;;;;;;5051099;28;20024;-73
2021/08/24 07:30:02;;;;;;;13.75;8.82;;;16.90;99.90;;;;;;5068564;28;20069;-74
2021/08/24 07:32:28;;;;;;;13.13;9.27;;;17.00;99.90;;;;;;5063511;28;20078;-72
2021/08/24 07:34:54;;;;;;;13.43;9.25;;;17.00;99.90;;;;;;5067691;28;20049;-72
2021/08/24 07:37:19;;;;;;;16.85;9.98;;;17.00;99.90;;;;;;5063217;28;20027;-72
2021/08/24 07:39:45;;;;;;;12.45;8.85;;;17.00;99.90;;;;;;5063076;28;20036;-74
2021/08/24 07:42:11;;;;;;;13.48;9.95;;;17.10;99.90;;;;;;5047371;28;20119;-73
2021/08/24 07:44:37;;;;;;;14.35;9.30;;;17.30;99.90;;;;;;5068148;28;20029;-73
2021/08/24 07:47:06;;;;;;;12.32;9.48;;;17.30;99.90;;;;;;5065701;28;20020;-71
2021/08/24 07:49:34;;;;;;;14.35;8.88;;;17.30;99.90;;;;;;5067709;28;20028;-72
2021/08/24 07:52:09;;;;;;;15.60;9.23;;;17.40;99.90;;;;;;5061329;28;20020;-76
2021/08/24 07:54:36;;;;;;;11.48;8.63;;;17.60;99.90;;;;;;5070255;28;20119;-74
2021/08/24 07:57:03;;;;;;;11.65;8.75;;;17.60;99.90;;;;;;5062195;28;20037;-73
2021/08/24 07:59:28;;;;;;;12.57;9.38;;;17.70;99.90;;;;;;5064838;28;20040;-74
2021/08/24 08:01:55;;;;;;;13.40;8.55;;;17.80;99.90;;;;;;5064206;28;20035;-75
2021/08/24 08:04:25;;;;;;;12.00;8.70;;;17.90;99.90;;;;;;5049598;28;20036;-75
2021/08/24 08:06:51;;;;;;;12.73;8.75;;;18.00;99.90;;;;;;5066783;28;20035;-72
2021/08/24 08:09:20;;;;;;;11.52;8.25;;;18.00;99.90;;;;;;5068980;28;20029;-73
2021/08/24 08:11:46;;;;;;;13.52;8.77;;;18.20;99.90;;;;;;5064576;28;20024;-74
2021/08/24 08:14:12;;;;;;;12.85;8.95;;;18.30;99.90;;;;;;5066297;28;20366;-72
2021/08/24 08:16:38;;;;;;;11.63;8.10;;;18.40;99.90;;;;;;5072999;28;20024;-74
2021/08/24 08:19:04;;;;;;;10.23;8.45;;;18.50;99.90;;;;;;5069005;28;20021;-72
2021/08/24 08:21:32;;;;;;;13.07;8.82;;;18.50;99.90;;;;;;5070280;28;20028;-73
2021/08/24 08:23:57;;;;;;;12.57;7.93;;;18.60;99.90;;;;;;5064913;28;20017;-71
2021/08/24 08:26:23;;;;;;;12.45;7.85;;;18.60;99.90;;;;;;5055474;28;20047;-72
2021/08/24 08:28:50;;;;;;;15.90;9.07;;;18.70;99.90;;;;;;5066271;28;20050;-73
2021/08/24 08:31:17;;;;;;;11.23;7.53;;;18.80;99.90;;;;;;5066598;28;20032;-72
2021/08/24 08:33:43;;;;;;;12.77;8.25;;;18.80;99.90;;;;;;5071554;28;20035;-73
2021/08/24 08:36:09;;;;;;;12.55;8.63;;;18.90;99.90;;;;;;5071333;28;20025;-72
2021/08/24 08:38:35;;;;;;;11.15;8.18;;;18.90;99.90;;;;;;5063099;28;20894;-76
2021/08/24 08:41:00;;;;;;;12.55;8.70;;;19.00;99.90;;;;;;5064636;28;20043;-72
2021/08/24 08:44:13;;;;;;;11.50;8.38;;;19.00;99.90;;;;;;5065844;28;20512;-72
2021/08/24 08:46:54;;;;;;;10.30;8.02;;;19.10;99.90;;;;;;5038382;28;20040;-73
2021/08/24 08:49:50;;;;;;;12.70;8.10;;;19.20;99.90;;;;;;5063641;28;20056;-72
2021/08/24 08:52:34;;;;;;;8.70;6.70;;;19.30;99.90;;;;;;5065331;28;20066;-72
2021/08/24 08:55:33;;;;;;;9.45;6.68;;;19.40;99.90;;;;;;5051104;28;20040;-73
2021/08/24 08:58:02;;;;;;;9.05;6.53;;;19.50;99.90;;;;;;5021980;28;20040;-73
2021/08/24 09:00:45;;;;;;;11.48;6.43;;;19.70;99.90;;;;;;5062651;28;20056;-76
2021/08/24 09:03:16;;;;;;;9.95;6.55;;;19.80;99.90;;;;;;5067916;28;20016;-73
2021/08/24 09:05:44;;;;;;;9.18;6.13;;;19.90;99.90;;;;;;5068851;28;20025;-72
2021/08/24 09:08:09;;;;;;;7.07;5.25;;;20.00;99.90;;;;;;5068630;28;20363;-73
2021/08/24 09:10:44;;;;;;;9.15;5.90;;;20.10;99.90;;;;;;5068244;28;20027;-73
2021/08/24 09:13:34;;;;;;;8.82;6.35;;;20.20;99.90;;;;;;5070727;28;20073;-75
2021/08/24 09:16:18;;;;;;;7.38;5.57;;;20.20;99.90;;;;;;5063692;28;20032;-74
2021/08/24 09:19:07;;;;;;;6.75;5.70;;;20.30;99.90;;;;;;5066924;28;20036;-73
2021/08/24 09:21:39;;;;;;;6.68;5.70;;;20.40;99.90;;;;;;5063488;28;20024;-78
2021/08/24 09:24:27;;;;;;;8.77;5.88;;;20.60;99.90;;;;;;5069608;28;20093;-75
2021/08/24 09:26:55;;;;;;;9.05;5.70;;;20.70;99.90;;;;;;5064523;28;20059;-74
2021/08/24 09:29:26;;;;;;;5.80;4.90;;;20.80;99.90;;;;;;5065816;28;20026;-75
2021/08/24 09:31:53;;;;;;;6.53;4.88;;;20.90;99.90;;;;;;5047398;28;20064;-74
2021/08/24 09:34:25;;;;;;;5.95;4.40;;;21.00;99.90;;;;;;5070223;28;20033;-74
2021/08/24 09:36:51;;;;;;;7.68;4.97;;;21.10;99.90;;;;;;5064919;28;20024;-74
2021/08/24 09:39:36;;;;;;;11.23;6.20;;;21.30;99.90;;;;;;5051689;28;20519;-74
2021/08/24 09:42:08;;;;;;;6.93;5.38;;;21.40;99.90;;;;;;5070493;28;20040;-74
2021/08/24 09:44:34;;;;;;;8.77;5.00;;;21.60;99.90;;;;;;5053584;28;20021;-74
2021/08/24 09:47:13;;;;;;;8.93;5.93;;;21.50;99.90;;;;;;5066070;28;20031;-74
2021/08/24 09:49:43;;;;;;;8.88;4.28;;;21.70;99.90;;;;;;5070975;28;20074;-74
2021/08/24 09:52:30;;;;;;;6.85;4.55;;;21.90;99.90;;;;;;5069428;28;20113;-74
2021/08/24 09:55:04;;;;;;;7.53;3.95;;;22.00;99.90;;;;;;5061423;28;20036;-74
2021/08/24 09:57:34;;;;;;;8.40;4.20;;;22.10;99.90;;;;;;5062908;28;20473;-73
2021/08/24 10:00:10;;;;;;;6.38;3.50;;;22.20;99.90;;;;;;5062716;28;20037;-74
2021/08/24 10:02:36;;;;;;;6.35;4.40;;;22.20;99.90;;;;;;5060717;28;20025;-73
2021/08/24 10:05:03;;;;;;;7.72;5.40;;;22.30;99.90;;;;;;5068864;28;20021;-75
2021/08/24 10:07:38;;;;;;;12.13;5.78;;;22.30;99.90;;;;;;5063256;28;20025;-73
2021/08/24 10:10:09;;;;;;;10.15;5.80;;;22.30;99.90;;;;;;5058818;28;20517;-73
2021/08/24 10:12:35;;;;;;;9.57;6.32;;;22.40;99.90;;;;;;5045855;28;20028;-74
2021/08/24 10:15:19;;;;;;;8.18;5.30;;;22.50;99.90;;;;;;5069980;28;20044;-73
2021/08/24 10:17:45;;;;;;;9.30;5.15;;;22.50;99.90;;;;;;5061817;28;20029;-73
2021/08/24 10:20:22;;;;;;;5.43;4.85;;;22.60;99.90;;;;;;5061467;28;20357;-73
2021/08/24 10:22:52;;;;;;;11.00;5.75;;;22.60;99.90;;;;;;5049614;28;20024;-74
2021/08/24 10:25:23;;;;;;;7.78;4.68;;;22.70;99.90;;;;;;5068287;28;20400;-75
2021/08/24 10:28:20;;;;;;;5.30;4.78;;;22.80;99.90;;;;;;5062793;28;20059;-77
2021/08/24 10:30:53;;;;;;;6.88;5.28;;;22.90;99.90;;;;;;5063731;28;20035;-76
2021/08/24 10:33:34;;;;;;;6.80;4.13;;;23.00;99.90;;;;;;5042781;28;20038;-78
2021/08/24 10:36:14;;;;;;;5.53;4.18;;;23.10;99.90;;;;;;5048168;28;20062;-75
2021/08/24 10:38:55;;;;;;;5.07;4.50;;;23.20;99.90;;;;;;5062618;28;20095;-76
2021/08/24 10:41:42;;;;;;;6.82;4.15;;;23.00;99.90;;;;;;5064734;28;20039;-73
2021/08/24 10:44:19;;;;;;;6.47;3.40;;;23.00;99.90;;;;;;5070866;28;20082;-75
2021/08/24 10:47:00;;;;;;;5.38;4.88;;;23.00;99.90;;;;;;5068784;28;20366;-81
2021/08/24 10:49:25;;;;;;;11.57;5.13;;;22.90;99.90;;;;;;5061983;28;20028;-73
2021/08/24 10:52:03;;;;;;;8.35;4.85;;;23.10;99.90;;;;;;5067037;28;20020;-82
2021/08/24 10:54:36;;;;;;;4.95;3.58;;;23.30;99.90;;;;;;5058628;28;20492;-81
2021/08/24 10:57:15;;;;;;;;;;;23.30;99.90;;;;;;5067817;28;20040;-75
2021/08/24 10:59:58;;;;;;;4.38;3.75;;;23.30;99.90;;;;;;5069814;28;19913;-74
2021/08/24 11:02:52;;;;;;;4.55;3.75;;;23.10;99.90;;;;;;5063905;28;20500;-74
2021/08/24 11:05:47;;;;;;;5.03;3.83;;;23.00;99.90;;;;;;5060411;28;20040;-73
2021/08/24 11:08:34;;;;;;;5.30;4.05;;;22.70;99.90;;;;;;5028949;28;20154;-74
2021/08/24 11:11:33;;;;;;;4.47;3.33;;;22.70;99.90;;;;;;5064227;28;20284;-74
2021/08/24 11:14:03;;;;;;;3.75;3.13;;;22.80;99.90;;;;;;5062321;28;21087;-74
2021/08/24 11:16:45;;;;;;;5.72;3.63;;;22.90;99.90;;;;;;5062609;28;20051;-74
2021/08/24 11:19:31;;;;;;;5.70;3.40;;;22.90;99.90;;;;;;5068983;28;20119;-73
2021/08/24 11:22:23;;;;;;;3.83;2.50;;;22.60;99.90;;;;;;5059455;28;20055;-74
2021/08/24 11:25:04;;;;;;;4.75;2.03;;;22.60;99.90;;;;;;5048042;28;20025;-74
2021/08/24 11:27:55;;;;;;;4.00;2.53;;;22.80;99.90;;;;;;5060634;28;20028;-74
2021/08/24 11:30:39;;;;;;;6.53;2.13;;;22.90;99.90;;;;;;5061466;28;20047;-74
2021/08/24 11:33:11;;;;;;;2.42;2.20;;;23.20;99.90;;;;;;5065661;28;20047;-79
2021/08/24 11:36:06;;;;;;;3.88;2.72;;;23.40;99.90;;;;;;5062740;28;20500;-73
2021/08/24 11:38:39;;;;;;;4.40;2.42;;;23.60;99.90;;;;;;5059857;28;20044;-73
2021/08/24 11:41:10;;;;;;;3.47;2.60;;;23.80;99.90;;;;;;5068889;28;20078;-74
2021/08/24 11:43:42;;;;;;;3.65;1.95;;;23.80;99.90;;;;;;5067864;28;20029;-80
2021/08/24 11:46:14;;;;;;;3.25;2.72;;;24.00;99.90;;;;;;5068966;28;20031;-73
2021/08/24 11:48:43;;;;;;;3.22;2.40;;;24.10;99.90;;;;;;5068018;28;20465;-74
2021/08/24 11:51:14;;;;;;;3.10;2.60;;;24.40;99.90;;;;;;5064938;28;20025;-74
2021/08/24 11:53:57;;;;;;;3.60;2.67;;;24.40;99.90;;;;;;5069222;28;20028;-80
2021/08/24 11:56:31;;;;;;;4.15;2.80;;;24.40;99.90;;;;;;5069953;28;20040;-83
2021/08/24 11:59:02;;;;;;;3.20;2.55;;;24.40;99.90;;;;;;5071613;28;20036;-78
2021/08/24 12:01:32;;;;;;;5.22;2.63;;;24.30;99.90;;;;;;5072943;28;20081;-74
2021/08/24 12:04:01;;;;;;;3.45;2.53;;;24.00;99.90;;;;;;5068568;28;20031;-73
2021/08/24 12:06:40;;;;;;;2.97;2.50;;;23.90;99.90;;;;;;5072940;28;20032;-73
2021/08/24 12:09:18;;;;;;;3.17;2.75;;;23.90;99.90;;;;;;5059835;28;20461;-73
2021/08/24 12:11:50;;;;;;;6.07;3.17;;;23.60;99.90;;;;;;5070553;28;20365;-75
2021/08/24 12:14:53;;;;;;;2.88;2.53;;;23.40;99.90;;;;;;5072665;28;20020;-74
2021/08/24 12:17:25;;;;;;;3.80;2.78;;;23.20;99.90;;;;;;5069551;28;20131;-74
2021/08/24 12:20:29;;;;;;;4.13;2.67;;;23.40;99.90;;;;;;5071525;28;20172;-74
2021/08/24 12:23:01;;;;;;;3.55;2.60;;;23.60;99.90;;;;;;5065578;28;20119;-74
2021/08/24 12:25:37;;;;;;;2.75;2.22;;;23.40;99.90;;;;;;5070834;28;20040;-81
2021/08/24 12:28:15;;;;;;;2.42;2.22;;;23.20;99.90;;;;;;5072887;28;20074;-77
2021/08/24 12:30:56;;;;;;;4.40;2.53;;;23.00;99.90;;;;;;5067624;28;20516;-74
2021/08/24 12:33:38;;;;;;;4.20;2.85;;;23.10;99.90;;;;;;5064254;28;20031;-75
2021/08/24 12:36:19;;;;;;;3.17;2.20;;;23.00;99.90;;;;;;5069409;28;20443;-73
2021/08/24 12:38:53;;;;;;;4.80;2.28;;;22.80;99.90;;;;;;5064232;28;20389;-73
2021/08/24 12:41:33;;;;;;;4.07;2.40;;;22.90;99.90;;;;;;5070512;28;20077;-75
2021/08/24 12:44:15;;;;;;;3.67;2.25;;;23.00;99.90;;;;;;5067649;28;20032;-74
2021/08/24 12:46:52;;;;;;;3.75;2.50;;;22.90;99.90;;;;;;5067868;28;20423;-74
2021/08/24 12:49:19;;;;;;;5.53;2.20;;;22.70;99.90;;;;;;5052160;28;20115;-75
2021/08/24 12:51:45;;;;;;;5.53;2.85;;;22.80;99.90;;;;;;5070576;28;20032;-72
2021/08/24 12:54:13;;;;;;;4.70;3.03;;;23.10;99.90;;;;;;5067230;28;20028;-77
2021/08/24 12:57:05;;;;;;;2.83;2.33;;;23.30;99.30;;;;;;5066971;28;20033;-74
2021/08/24 12:59:37;;;;;;;3.55;2.33;;;23.60;99.50;;;;;;5066454;28;20028;-74
2021/08/24 13:02:28;;;;;;;3.88;2.50;;;23.80;99.90;;;;;;5070839;28;20025;-74
2021/08/24 13:05:16;;;;;;;2.58;2.22;;;23.90;99.60;;;;;;5064225;28;20021;-73
2021/08/24 13:07:57;;;;;;;4.35;2.47;;;24.00;99.90;;;;;;5065474;28;20037;-77